In Rescue
 
Open Full Screen Window  High Contrast Mode
Wind Gusting 00 knots
08
April 20, 2024 8:33 AM EDT
Weather Information
Wind Direction
  270 °
Wind Speed
  08 kt (9 mph)
Wind Gust
  00 kt (0 mph)
Variable Wind
220°
290°
Altimeter
30.11 in
Visibility
10 SM
Temperature
05° C
41° F
Dewpoint
-04° C
25° F
Humidity
52%
Sky Condition
Overcast @ 5,000 ft
VFR

METAR KDUH 201233Z AUTO 27008KT 220V290 10SM OVC050 05/M04 A3011 RMK AO2 T00501037

FAA Disclaimer: The data displayed is for advisory purposes only and is not to be used for flight planning or operations.